Time;durP1;ratioP1;P1;durP2;ratioP2;P2;SDS_P1;SDS_P2;PMS_P1;PMS_P2;Temp;Humidity;BMP_temperature;BMP_pressure;BME280_temperature;BME280_humidity;BME280_pressure;Samples;Min_cycle;Max_cycle;Signal;HPM_P1;HPM_P2
2023/11/05 00:01:50;;;;;;;49.85;26.80;;;;;;;2.82;86.37;97901.36;1820681;78;25394;-65
2023/11/05 00:04:16;;;;;;;53.23;29.90;;;;;;;2.77;86.57;97897.73;1820608;78;26012;-65
2023/11/05 00:06:43;;;;;;;53.25;30.25;;;;;;;2.72;86.40;97899.23;1774363;79;25412;-67
2023/11/05 00:09:09;;;;;;;53.92;30.23;;;;;;;2.68;86.34;97902.30;1752162;81;27967;-66
2023/11/05 00:11:36;;;;;;;52.75;29.23;;;;;;;2.62;86.36;97902.22;1803053;79;26054;-65
2023/11/05 00:14:03;;;;;;;56.15;31.12;;;;;;;2.57;86.40;97907.19;1747677;81;25540;-66
2023/11/05 00:16:29;;;;;;;50.88;27.58;;;;;;;2.52;86.40;97907.34;1773529;79;25566;-66
2023/11/05 00:18:56;;;;;;;46.98;25.85;;;;;;;2.47;86.64;97911.50;1745653;82;25409;-65
2023/11/05 00:21:22;;;;;;;51.95;27.77;;;;;;;2.45;86.86;97912.34;1798136;79;27587;-66
2023/11/05 00:23:48;;;;;;;50.40;27.58;;;;;;;2.44;86.82;97922.80;1820555;78;25828;-66
2023/11/05 00:26:14;;;;;;;52.58;28.42;;;;;;;2.39;86.66;97918.39;1798130;79;25610;-65
2023/11/05 00:28:40;;;;;;;59.85;29.90;;;;;;;2.36;86.41;97911.56;1820604;78;27594;-66
2023/11/05 00:31:06;;;;;;;54.50;29.87;;;;;;;2.34;86.24;97911.87;1745704;82;25615;-65
2023/11/05 00:33:33;;;;;;;54.15;29.67;;;;;;;2.30;86.44;97907.46;1773268;79;27535;-66
2023/11/05 00:35:59;;;;;;;57.98;31.70;;;;;;;2.26;86.51;97906.52;1820501;78;25552;-66
2023/11/05 00:38:26;;;;;;;60.30;30.75;;;;;;;2.23;86.84;97906.06;1798056;79;25609;-65
2023/11/05 00:40:52;;;;;;;60.17;32.20;;;;;;;2.22;87.28;97901.81;1820508;78;25547;-66
2023/11/05 00:43:18;;;;;;;64.05;35.20;;;;;;;2.22;87.72;97899.70;1798090;79;25531;-67
2023/11/05 00:45:44;;;;;;;58.15;32.70;;;;;;;2.20;88.22;97889.89;1745620;82;27475;-65
2023/11/05 00:48:10;;;;;;;65.20;33.42;;;;;;;2.23;88.89;97883.91;1745521;82;25772;-66
2023/11/05 00:50:37;;;;;;;63.98;33.90;;;;;;;2.23;88.63;97882.58;1745595;82;25375;-66
2023/11/05 00:53:03;;;;;;;66.42;35.98;;;;;;;2.23;88.99;97879.38;1720062;82;25422;-66
2023/11/05 00:55:29;;;;;;;59.63;33.63;;;;;;;2.21;89.15;97870.11;1820598;78;25601;-66
2023/11/05 00:57:55;;;;;;;61.70;32.85;;;;;;;2.21;89.04;97865.58;1820591;78;27587;-66
2023/11/05 01:00:22;;;;;;;59.53;33.20;;;;;;;2.20;88.74;97858.66;1804407;79;25789;-67
2023/11/05 01:02:48;;;;;;;67.92;35.40;;;;;;;2.21;89.59;97855.44;1807455;79;25484;-66
2023/11/05 01:05:15;;;;;;;60.52;33.53;;;;;;;2.24;90.27;97855.59;1807353;79;25551;-66
2023/11/05 01:07:41;;;;;;;67.22;36.50;;;;;;;2.26;89.99;97852.62;1776146;79;25482;-66
2023/11/05 01:10:09;;;;;;;62.35;35.73;;;;;;;2.28;90.57;97842.97;1762451;81;27501;-66
2023/11/05 01:12:35;;;;;;;68.95;36.53;;;;;;;2.31;90.22;97830.34;1772004;79;25471;-66
2023/11/05 01:15:03;;;;;;;66.47;36.60;;;;;;;2.28;89.90;97819.74;1762511;81;25627;-67
2023/11/05 01:17:29;;;;;;;68.17;37.73;;;;;;;2.29;89.69;97819.98;1807338;79;26243;-66
2023/11/05 01:19:56;;;;;;;66.47;35.88;;;;;;;2.29;89.82;97817.88;1807294;79;25624;-66
2023/11/05 01:22:22;;;;;;;66.17;35.92;;;;;;;2.31;90.52;97821.01;1807318;79;27559;-66
2023/11/05 01:24:49;;;;;;;67.35;37.28;;;;;;;2.35;91.10;97820.60;1807310;79;25444;-66
2023/11/05 01:27:15;;;;;;;64.35;36.15;;;;;;;2.37;91.29;97806.42;1807359;79;25456;-69
2023/11/05 01:29:41;;;;;;;68.15;36.30;;;;;;;2.41;91.95;97810.02;1762406;81;25541;-68
2023/11/05 01:32:08;;;;;;;71.92;38.63;;;;;;;2.45;92.03;97803.50;1807418;79;25483;-66
2023/11/05 01:34:34;;;;;;;69.60;35.55;;;;;;;2.50;92.68;97796.10;1762508;81;27033;-67
2023/11/05 01:37:01;;;;;;;64.35;36.35;;;;;;;2.55;92.71;97798.61;1807277;79;25479;-67
2023/11/05 01:39:27;;;;;;;62.30;37.00;;;;;;;2.59;92.96;97795.55;1762404;81;25420;-67
2023/11/05 01:41:53;;;;;;;64.87;37.10;;;;;;;2.63;93.32;97798.37;1775615;79;26106;-66
2023/11/05 01:44:19;;;;;;;64.42;35.75;;;;;;;2.64;92.97;97794.61;1807359;79;25631;-66
2023/11/05 01:46:47;;;;;;;63.28;34.50;;;;;;;2.67;92.49;97798.52;1775645;79;27348;-67
2023/11/05 01:49:14;;;;;;;69.50;34.85;;;;;;;2.71;93.53;97795.47;1807244;79;25460;-66
2023/11/05 01:51:42;;;;;;;66.45;34.80;;;;;;;2.75;93.86;97797.16;1762349;81;25392;-66
2023/11/05 01:54:12;;;;;;;67.72;37.88;;;;;;;2.78;93.99;97787.19;1775616;79;25906;-66
2023/11/05 01:56:38;;;;;;;67.20;36.40;;;;;;;2.83;93.54;97790.77;1807408;79;25647;-66
2023/11/05 01:59:05;;;;;;;66.85;35.83;;;;;;;2.89;94.53;97785.50;1761519;81;27484;-66
2023/11/05 02:01:33;;;;;;;71.12;37.80;;;;;;;2.95;95.14;97777.56;1773417;79;25815;-66
2023/11/05 02:03:59;;;;;;;72.47;36.10;;;;;;;3.01;95.09;97774.16;1745532;82;25412;-67
2023/11/05 02:06:26;;;;;;;64.15;34.98;;;;;;;3.06;95.28;97767.30;1797921;79;25580;-64
2023/11/05 02:08:52;;;;;;;79.05;41.45;;;;;;;3.09;95.50;97752.75;1820468;78;25434;-66
2023/11/05 02:11:19;;;;;;;71.77;38.33;;;;;;;3.12;94.92;97760.69;1745525;82;27479;-66
2023/11/05 02:13:54;;;;;;;68.75;36.05;;;;;;;3.14;94.80;97757.91;1745406;82;25357;-67
2023/11/05 02:16:31;;;;;;;66.57;35.00;;;;;;;3.19;95.36;97755.63;1745573;82;25465;-66
2023/11/05 02:18:54;;;;;;;60.78;33.63;;;;;;;3.23;95.45;97754.42;1819586;78;26182;-66
2023/11/05 02:21:28;;;;;;;65.20;35.75;;;;;;;3.26;95.68;97765.25;1745571;82;25417;-67
2023/11/05 02:23:55;;;;;;;70.47;37.55;;;;;;;3.31;96.30;97768.30;1797985;79;27557;-67
2023/11/05 02:26:22;;;;;;;70.25;36.30;;;;;;;3.35;95.86;97774.55;1820412;78;25855;-67
2023/11/05 02:28:48;;;;;;;63.00;36.55;;;;;;;3.38;95.92;97774.47;1820483;78;25628;-68
2023/11/05 02:31:14;;;;;;;61.73;32.30;;;;;;;3.41;95.89;97775.94;1745485;82;25608;-68
2023/11/05 02:33:44;;;;;;;61.30;33.60;;;;;;;3.42;95.87;97778.05;1745525;82;25386;-68
2023/11/05 02:36:12;;;;;;;63.73;34.75;;;;;;;3.45;96.36;97778.19;1820509;78;27474;-67
2023/11/05 02:38:39;;;;;;;64.27;34.58;;;;;;;3.48;96.25;97772.77;1820373;78;25443;-66
2023/11/05 02:41:11;;;;;;;61.85;35.03;;;;;;;3.52;96.91;97772.34;1820465;78;25435;-67
2023/11/05 02:43:38;;;;;;;63.45;33.08;;;;;;;3.55;96.94;97763.67;1745456;81;25590;-66
2023/11/05 02:46:06;;;;;;;59.88;34.45;;;;;;;3.57;96.92;97770.04;1745570;82;25457;-67
2023/11/05 02:48:33;;;;;;;60.90;33.08;;;;;;;3.59;96.66;97755.78;1820474;78;28136;-68
2023/11/05 02:51:01;;;;;;;60.20;33.18;;;;;;;3.61;96.90;97749.03;1820376;78;25375;-69
2023/11/05 02:53:28;;;;;;;69.62;33.48;;;;;;;3.65;97.25;97749.93;1820488;78;25597;-69
2023/11/05 02:55:54;;;;;;;58.85;34.23;;;;;;;3.67;97.23;97755.73;1820446;78;25630;-69
2023/11/05 02:58:20;;;;;;;64.27;34.15;;;;;;;3.67;97.26;97746.94;1745475;82;25634;-69
2023/11/05 03:00:46;;;;;;;66.15;35.10;;;;;;;3.70;97.33;97734.26;1750396;80;27534;-69
2023/11/05 03:03:13;;;;;;;61.40;33.45;;;;;;;3.68;96.59;97731.91;1753647;81;25438;-69
2023/11/05 03:05:44;;;;;;;60.05;33.18;;;;;;;3.71;96.60;97725.91;1747162;81;25501;-68
2023/11/05 03:08:12;;;;;;;65.57;34.03;;;;;;;3.71;96.84;97719.77;1742832;82;25684;-68
2023/11/05 03:10:39;;;;;;;56.55;32.85;;;;;;;3.72;97.02;97722.11;1812071;79;25537;-68
2023/11/05 03:13:07;;;;;;;60.78;32.48;;;;;;;3.71;97.00;97721.10;1732259;81;27522;-69
2023/11/05 03:15:33;;;;;;;61.05;33.65;;;;;;;3.72;97.67;97720.78;1799417;79;25623;-68
2023/11/05 03:18:00;;;;;;;70.20;34.75;;;;;;;3.74;97.49;97714.55;1806742;79;25571;-68
2023/11/05 03:20:26;;;;;;;65.15;33.92;;;;;;;3.77;98.02;97715.02;1806672;79;26097;-68
2023/11/05 03:22:52;;;;;;;63.10;33.48;;;;;;;3.78;97.89;97709.89;1807513;79;25618;-67
2023/11/05 03:25:19;;;;;;;65.22;33.20;;;;;;;3.79;98.27;97710.90;1807632;79;27482;-67
2023/11/05 03:27:45;;;;;;;66.47;33.73;;;;;;;3.80;98.24;97704.45;1718148;82;27412;-67
2023/11/05 03:30:13;;;;;;;67.40;33.88;;;;;;;3.81;98.02;97710.58;1741041;82;25394;-67
2023/11/05 03:32:40;;;;;;;65.03;35.43;;;;;;;3.81;98.29;97711.91;1814415;79;25547;-68
2023/11/05 03:35:09;;;;;;;64.92;36.00;;;;;;;3.83;98.86;97712.36;1795139;80;25376;-68
2023/11/05 03:37:37;;;;;;;63.58;32.93;;;;;;;3.84;98.67;97705.91;1742977;82;28020;-68
2023/11/05 03:40:06;;;;;;;60.67;33.55;;;;;;;3.84;98.58;97705.91;1742746;82;25508;-68
2023/11/05 03:42:32;;;;;;;59.65;32.05;;;;;;;3.84;98.24;97712.03;1742841;82;25457;-68
2023/11/05 03:44:58;;;;;;;61.08;34.00;;;;;;;3.85;98.93;97700.24;1743025;82;25559;-67
2023/11/05 03:47:25;;;;;;;61.85;33.63;;;;;;;3.86;98.55;97705.80;1743292;82;25641;-69
2023/11/05 03:49:53;;;;;;;63.55;34.27;;;;;;;3.87;98.79;97706.04;1795643;79;27485;-69
2023/11/05 03:52:19;;;;;;;66.17;32.88;;;;;;;3.88;98.73;97698.80;1795565;79;25200;-70
2023/11/05 03:54:45;;;;;;;60.85;33.90;;;;;;;3.88;98.80;97690.77;1743191;82;25622;-69
2023/11/05 03:57:11;;;;;;;63.95;33.23;;;;;;;3.86;98.73;97673.71;1806886;79;25521;-69
2023/11/05 03:59:39;;;;;;;63.38;33.42;;;;;;;3.86;98.78;97684.41;1742437;82;25454;-69
2023/11/05 04:02:06;;;;;;;61.00;31.55;;;;;;;3.86;98.95;97691.09;1809520;79;28166;-69
2023/11/05 04:04:32;;;;;;;63.33;33.75;;;;;;;3.85;98.75;97687.44;1742211;82;27363;-69
2023/11/05 04:07:00;;;;;;;61.58;33.23;;;;;;;3.87;98.98;97690.56;1780154;79;25563;-69
2023/11/05 04:09:26;;;;;;;61.90;33.15;;;;;;;3.86;98.87;97681.73;1732072;82;25556;-69
2023/11/05 04:11:53;;;;;;;58.80;31.90;;;;;;;3.85;98.91;97690.11;1727305;81;25457;-70
2023/11/05 04:14:20;;;;;;;60.70;34.53;;;;;;;3.84;98.70;97696.55;1727256;83;28117;-70
2023/11/05 04:16:46;;;;;;;56.92;30.62;;;;;;;3.83;98.50;97697.66;1732476;82;25660;-69
2023/11/05 04:19:14;;;;;;;60.40;33.48;;;;;;;3.81;98.56;97697.98;1742929;82;25525;-70
2023/11/05 04:21:40;;;;;;;58.20;31.85;;;;;;;3.80;99.21;97700.44;1741295;82;25559;-68
2023/11/05 04:24:08;;;;;;;57.90;30.95;;;;;;;3.81;99.29;97701.22;1774482;80;25618;-69
2023/11/05 04:26:34;;;;;;;61.20;32.25;;;;;;;3.80;98.81;97710.34;1742918;82;27488;-69
2023/11/05 04:29:01;;;;;;;56.75;32.42;;;;;;;3.80;98.92;97701.78;1742899;82;25745;-69
2023/11/05 04:31:27;;;;;;;61.13;31.30;;;;;;;3.81;99.17;97697.20;1812249;79;25437;-68
2023/11/05 04:33:54;;;;;;;62.03;32.60;;;;;;;3.81;99.22;97690.52;1742879;82;25644;-69
2023/11/05 04:36:21;;;;;;;58.25;32.20;;;;;;;3.80;99.12;97668.89;1809415;79;25613;-69
2023/11/05 04:38:47;;;;;;;59.53;30.82;;;;;;;3.81;99.15;97668.56;1731221;82;27825;-69
2023/11/05 04:41:22;;;;;;;55.12;30.85;;;;;;;3.82;99.44;97651.42;1808683;78;25595;-69
2023/11/05 04:43:48;;;;;;;66.25;31.73;;;;;;;3.84;99.22;97651.09;1807016;79;25541;-69
2023/11/05 04:46:15;;;;;;;58.20;31.93;;;;;;;3.83;99.55;97638.83;1806940;79;25570;-69
2023/11/05 04:48:41;;;;;;;55.75;30.10;;;;;;;3.83;99.21;97634.28;1807041;78;25560;-69
2023/11/05 04:51:11;;;;;;;62.33;32.10;;;;;;;3.83;99.23;97628.13;1806922;78;27472;-69
2023/11/05 04:53:38;;;;;;;;;;;;;;;3.83;99.28;97624.12;1809426;79;25828;-69
2023/11/05 04:56:12;;;;;;;56.37;29.20;;;;;;;3.83;99.65;97628.13;1806861;79;25475;-69
2023/11/05 04:58:38;;;;;;;53.42;29.87;;;;;;;3.81;99.88;97628.45;1806119;79;26301;-69
2023/11/05 05:01:05;;;;;;;50.12;29.98;;;;;;;3.84;100.00;97629.70;1806660;78;25426;-69
2023/11/05 05:03:31;;;;;;;58.98;31.80;;;;;;;3.86;100.00;97628.81;1806841;79;27627;-67
2023/11/05 05:05:58;;;;;;;57.73;30.52;;;;;;;3.88;100.00;97603.86;1806721;79;25751;-69
2023/11/05 05:08:24;;;;;;;58.42;29.75;;;;;;;3.90;100.00;97604.33;1806800;79;25389;-69
2023/11/05 05:10:51;;;;;;;60.08;31.15;;;;;;;3.91;100.00;97602.64;1806766;79;26145;-70
2023/11/05 05:13:17;;;;;;;57.13;30.65;;;;;;;3.93;100.00;97604.45;1806847;78;25483;-69
2023/11/05 05:15:45;;;;;;;56.73;29.45;;;;;;;3.96;100.00;97595.53;1806848;78;27893;-68
2023/11/05 05:18:11;;;;;;;57.27;29.87;;;;;;;3.97;100.00;97573.81;1806716;79;25381;-69
2023/11/05 05:20:38;;;;;;;55.33;28.90;;;;;;;3.99;100.00;97576.16;1806769;78;25468;-69
2023/11/05 05:23:04;;;;;;;57.20;29.05;;;;;;;4.01;100.00;97582.72;1806727;79;25518;-70
2023/11/05 05:25:30;;;;;;;48.40;27.25;;;;;;;4.03;100.00;97578.38;1806843;79;25118;-69
2023/11/05 05:27:57;;;;;;;51.25;27.15;;;;;;;4.06;100.00;97599.89;1806785;79;27535;-69
2023/11/05 05:30:23;;;;;;;47.88;27.77;;;;;;;4.08;100.00;97612.94;1806662;79;25451;-69
2023/11/05 05:32:50;;;;;;;47.98;26.93;;;;;;;4.09;100.00;97619.30;1806801;78;25379;-69
2023/11/05 05:35:17;;;;;;;50.25;27.15;;;;;;;4.12;100.00;97641.95;1806748;79;25556;-68
2023/11/05 05:37:43;;;;;;;45.48;25.70;;;;;;;4.16;100.00;97655.45;1784261;79;25660;-68
2023/11/05 05:40:11;;;;;;;46.20;25.60;;;;;;;4.19;100.00;97662.78;1806763;78;28073;-68
2023/11/05 05:42:38;;;;;;;42.45;24.67;;;;;;;4.22;100.00;97672.30;1806673;79;25401;-68
2023/11/05 05:45:06;;;;;;;44.65;24.87;;;;;;;4.25;100.00;97672.17;1784171;79;25559;-69
2023/11/05 05:47:32;;;;;;;39.95;23.35;;;;;;;4.28;100.00;97678.21;1784094;79;25713;-68
2023/11/05 05:49:59;;;;;;;37.73;23.22;;;;;;;4.29;100.00;97679.22;1806799;79;25641;-68
2023/11/05 05:52:25;;;;;;;38.92;22.75;;;;;;;4.36;100.00;97689.39;1806709;79;29623;-69
2023/11/05 05:54:51;;;;;;;36.93;22.73;;;;;;;4.37;100.00;97685.58;1784012;79;25633;-68
2023/11/05 05:57:18;;;;;;;40.88;22.42;;;;;;;4.42;100.00;97673.89;1806767;79;25523;-67
2023/11/05 05:59:44;;;;;;;99.00;90.45;;;;;;;4.44;100.00;97667.10;1806678;79;25612;-69
2023/11/05 06:02:10;;;;;;;96.35;87.78;;;;;;;4.43;100.00;97664.76;1806727;78;25361;-68
2023/11/05 06:04:36;;;;;;;97.57;89.25;;;;;;;4.45;100.00;97664.64;1806751;79;28222;-68
2023/11/05 06:07:04;;;;;;;93.72;85.53;;;;;;;4.49;100.00;97653.50;1806586;79;27301;-67
2023/11/05 06:09:30;;;;;;;92.60;84.62;;;;;;;4.54;100.00;97653.83;1806704;78;25619;-67
2023/11/05 06:11:56;;;;;;;88.33;80.45;;;;;;;4.58;100.00;97644.56;1806664;79;27780;-67
2023/11/05 06:14:22;;;;;;;87.43;79.70;;;;;;;4.62;100.00;97641.46;1806765;79;25451;-66
2023/11/05 06:16:49;;;;;;;86.80;78.87;;;;;;;4.65;100.00;97638.89;1784024;79;27703;-68
2023/11/05 06:19:15;;;;;;;86.50;79.00;;;;;;;4.68;100.00;97629.39;1806628;79;25585;-67
2023/11/05 06:21:45;;;;;;;84.30;76.50;;;;;;;4.69;100.00;97633.65;1806698;79;25497;-67
2023/11/05 06:24:11;;;;;;;83.60;76.60;;;;;;;4.71;100.00;97619.36;1806717;79;25502;-67
2023/11/05 06:26:41;;;;;;;89.77;81.60;;;;;;;4.73;100.00;97613.67;1806758;78;25550;-67
2023/11/05 06:29:07;;;;;;;;;;;;;;;4.73;100.00;97606.41;1809448;78;27506;-67
2023/11/05 06:31:34;;;;;;;86.57;79.58;;;;;;;4.75;100.00;97610.90;1784011;79;25748;-66
2023/11/05 06:34:00;;;;;;;80.97;74.53;;;;;;;4.76;100.00;97599.62;1806758;78;25381;-67
2023/11/05 06:36:26;;;;;;;83.97;76.93;;;;;;;;;;1806791;79;25613;-66
2023/11/05 06:38:52;;;;;;;87.73;79.77;;;;;;;;;;1783850;79;25410;-67
2023/11/05 06:41:18;;;;;;;87.27;79.93;;;;;;;;;;1806784;79;32714;-67
2023/11/05 06:43:44;;;;;;;84.17;76.53;;;;;;;;;;1806621;79;29966;-67
2023/11/05 06:46:10;;;;;;;61.80;56.77;;;;;;;;;;1806696;79;25531;-67
2023/11/05 06:48:36;;;;;;;84.60;78.03;;;;;;;;;;1806711;79;32156;-67
2023/11/05 06:51:04;;;;;;;81.53;74.50;;;;;;;;;;1806759;79;25943;-67
2023/11/05 06:53:31;;;;;;;57.15;52.67;;;;;;;;;;1806871;79;27267;-67
2023/11/05 06:55:56;;;;;;;86.40;78.73;;;;;;;;;;1806642;79;29563;-67
2023/11/05 06:58:22;;;;;;;82.20;75.23;;;;;;;;;;1806823;79;34777;-67
2023/11/05 07:00:49;;;;;;;78.20;72.03;;;;;;;;;;1783795;79;32178;-67
2023/11/05 07:03:17;;;;;;;86.40;78.67;;;;;;;;;;1808231;79;25400;-67
2023/11/05 07:05:45;;;;;;;82.97;75.87;;;;;;;;;;1808177;79;27499;-68
2023/11/05 07:08:10;;;;;;;82.93;76.53;;;;;;;;;;1808045;79;30053;-70
2023/11/05 07:10:36;;;;;;;63.73;58.93;;;;;;;;;;1808271;79;34629;-69
2023/11/05 07:13:03;;;;;;;80.90;74.40;;;;;;;;;;1808103;79;25843;-69
2023/11/05 07:15:29;;;;;;;58.73;54.23;;;;;;;;;;1808182;79;26174;-68
2023/11/05 07:17:55;;;;;;;81.30;74.77;;;;;;;;;;1802695;79;27501;-68
2023/11/05 07:20:20;;;;;;;74.10;68.50;;;;;;;;;;1793517;80;29146;-67
2023/11/05 07:22:46;;;;;;;79.20;72.57;;;;;;;;;;1793696;80;34660;-68
2023/11/05 07:25:12;;;;;;;81.20;75.00;;;;;;;;;;1793592;80;32206;-68
2023/11/05 07:27:38;;;;;;;80.37;74.07;;;;;;;;;;1793662;79;25403;-68
2023/11/05 07:30:07;;;;;;;76.73;69.93;;;;;;;;;;1793614;80;29703;-68
2023/11/05 07:32:33;;;;;;;58.03;53.23;;;;;;;;;;1793817;80;25466;-66
2023/11/05 07:34:59;;;;;;;82.40;75.70;;;;;;;;;;1793615;80;25648;-65
2023/11/05 07:37:27;;;;;;;82.63;75.27;;;;;;;;;;1793640;80;32163;-66
2023/11/05 07:39:53;;;;;;;55.88;51.83;;;;;;;;;;1762567;80;25616;-65
2023/11/05 07:42:20;;;;;;;80.40;74.37;;;;;;;;;;1793633;80;32823;-67
2023/11/05 07:44:46;;;;;;;81.27;74.67;;;;;;;;;;1793501;80;25665;-65
2023/11/05 07:47:12;;;;;;;60.20;55.43;;;;;;;;;;1793571;80;25368;-65
2023/11/05 07:49:38;;;;;;;82.07;76.00;;;;;;;;;;1793575;79;25976;-66
2023/11/05 07:52:05;;;;;;;35.52;32.10;;;;;;;;;;1793630;79;25575;-66
2023/11/05 07:54:33;;;;;;;20.55;10.78;;;;;;;;;;1788715;80;27529;-66
2023/11/05 07:56:59;;;;;;;17.52;10.13;;;;;;;;;;1793518;80;25656;-68
2023/11/05 07:59:26;;;;;;;20.48;10.50;;;;;;;;;;1762475;80;25568;-68
2023/11/05 08:01:52;;;;;;;16.00;9.40;;;;;;;;;;1793481;79;25587;-68
2023/11/05 08:04:20;;;;;;;13.88;9.35;;;;;;;;;;1793674;80;32364;-69
2023/11/05 08:06:46;;;;;;;18.65;8.83;;;;;;;;;;1793641;80;27576;-70
2023/11/05 08:09:13;;;;;;;17.70;9.75;;;;;;;;;;1793548;80;25756;-70
2023/11/05 08:11:39;;;;;;;14.18;8.45;;;;;;;;;;1793650;80;30044;-69
2023/11/05 08:14:05;;;;;;;12.88;8.63;;;;;;;;;;1793632;80;25609;-66
2023/11/05 08:16:31;;;;;;;16.00;9.23;;;;;;;;;;1793612;80;25522;-68
2023/11/05 08:18:59;;;;;;;12.95;8.53;;;;;;;;;;1793604;80;27592;-68
2023/11/05 08:21:25;;;;;;;15.98;8.50;;;;;;;;;;1793576;80;25624;-68
2023/11/05 08:23:51;;;;;;;12.73;8.05;;;;;;;;;;1793684;79;25549;-68
2023/11/05 08:26:18;;;;;;;11.78;7.78;;;;;;;;;;1793586;79;25673;-69
2023/11/05 08:28:44;;;;;;;15.05;7.75;;;;;;;;;;1793659;80;25546;-68
2023/11/05 08:31:11;;;;;;;12.65;7.92;;;;;;;;;;1793607;79;28073;-69
2023/11/05 08:33:39;;;;;;;14.07;7.12;;;;;;;;;;1793493;80;25587;-69
2023/11/05 08:36:08;;;;;;;12.43;7.50;;;;;;;;;;1793904;80;25412;-67
2023/11/05 08:38:35;;;;;;;13.55;7.75;;;;;;;;;;1788368;80;25550;-69
2023/11/05 08:41:03;;;;;;;13.68;7.00;;;;;;;;;;1793714;80;25395;-67
2023/11/05 08:43:29;;;;;;;14.90;8.25;;;;;;;;;;1794441;80;27631;-67
2023/11/05 08:45:55;;;;;;;9.80;6.78;;;;;;;;;;1794423;80;32799;-66
2023/11/05 08:48:22;;;;;;;11.88;7.45;;;;;;;;;;1794362;80;25463;-67
2023/11/05 08:50:49;;;;;;;14.50;7.45;;;;;;;;;;1793617;80;34757;-67
2023/11/05 08:53:17;;;;;;;10.75;6.67;;;;;;;;;;1793671;80;25496;-62
2023/11/05 08:55:45;;;;;;;11.38;7.53;;;;;;;;;;1793703;80;33312;-65
2023/11/05 08:58:11;;;;;;;12.35;7.15;;;;;;;;;;1793536;80;25403;-67
2023/11/05 09:00:37;;;;;;;13.98;8.00;;;;;;;;;;1762051;80;29678;-62
2023/11/05 09:03:04;;;;;;;12.07;6.83;;;;;;;;;;1793397;80;34659;-62
2023/11/05 09:05:30;;;;;;;15.38;7.37;;;;;;;;;;1793600;79;25524;-63
2023/11/05 09:07:56;;;;;;;15.18;7.35;;;;;;;;;;1793591;80;27225;-64
2023/11/05 09:10:26;;;;;;;11.90;7.30;;;;;;;;;;1793456;80;32714;-62
2023/11/05 09:12:51;;;;;;;12.65;6.97;;;;;;;;;;1793664;80;25408;-63
2023/11/05 09:15:20;;;;;;;11.53;7.17;;;;;;;;;;1793537;79;25601;-61
2023/11/05 09:17:46;;;;;;;10.72;7.08;;;;;;;;;;1793588;80;25634;-62
2023/11/05 09:20:13;;;;;;;12.47;6.72;;;;;;;;;;1793540;80;27513;-62
2023/11/05 09:22:42;;;;;;;12.73;7.40;;;;;;;;;;1793470;80;25819;-61
2023/11/05 09:25:09;;;;;;;13.53;6.67;;;;;;;;;;1793537;80;25577;-62
2023/11/05 09:27:39;;;;;;;10.18;6.75;;;;;;;;;;1793527;80;25574;-60
2023/11/05 09:30:11;;;;;;;9.95;6.75;;;;;;;;;;1793623;79;25564;-62
2023/11/05 09:32:39;;;;;;;11.95;8.03;;;;;;;;;;1793319;80;27541;-62
2023/11/05 09:35:07;;;;;;;14.47;7.03;;;;;;;;;;1793530;80;25586;-63
2023/11/05 09:37:34;;;;;;;9.63;6.30;;;;;;;;;;1793823;80;25583;-62
2023/11/05 09:40:03;;;;;;;9.15;6.95;;;;;;;;;;1793512;80;25534;-63
2023/11/05 09:42:31;;;;;;;10.30;6.12;;;;;;;;;;1793563;80;25562;-64
2023/11/05 09:45:01;;;;;;;10.20;6.22;;;;;;;;;;1793558;80;28109;-64
2023/11/05 09:47:29;;;;;;;11.30;6.00;;;;;;;;;;1793475;80;25539;-64
2023/11/05 09:49:55;;;;;;;10.80;5.78;;;;;;;;;;1762332;80;25506;-64
2023/11/05 09:52:21;;;;;;;11.93;6.10;;;;;;;;;;1793581;79;34707;-65
2023/11/05 09:54:49;;;;;;;11.33;6.50;;;;;;;;;;1793655;79;25422;-62
2023/11/05 09:57:15;;;;;;;9.53;6.25;;;;;;;;;;1793536;80;27364;-63
2023/11/05 09:59:47;;;;;;;8.28;5.65;;;;;;;;;;1793437;80;25531;-63
2023/11/05 10:02:13;;;;;;;11.65;6.28;;;;;;;;;;1793433;80;25578;-58
2023/11/05 10:04:41;;;;;;;10.53;6.00;;;;;;;;;;1793422;79;25700;-67
2023/11/05 10:07:10;;;;;;;9.48;6.00;;;;;;;;;;1793694;80;25470;-70
2023/11/05 10:09:36;;;;;;;10.03;5.75;;;;;;;;;;1793514;80;28042;-69
2023/11/05 10:12:04;;;;;;;12.90;6.28;;;;;;;;;;1793402;80;25518;-68
2023/11/05 10:14:31;;;;;;;8.53;5.92;;;;;;;;;;1762339;80;25321;-69
2023/11/05 10:17:01;;;;;;;10.00;5.33;;;;;;;;;;1793487;80;25882;-65
2023/11/05 10:19:27;;;;;;;15.38;10.95;;;;;;;;;;1793690;80;25394;-67
2023/11/05 10:21:54;;;;;;;13.25;11.10;;;;;;;;;;1793484;80;28087;-66
2023/11/05 10:24:50;;;;;;;7.75;5.62;;;;;;;8.57;90.19;97489.95;1821329;77;35153;-69
2023/11/05 10:27:30;;;;;;;9.95;6.08;;;;;;;8.46;89.96;97487.66;1782668;80;25533;-66
2023/11/05 10:29:58;;;;;;;11.03;6.70;;;;;;;8.42;90.24;97483.55;1782623;80;27833;-66
2023/11/05 10:32:27;;;;;;;10.63;6.45;;;;;;;8.39;90.79;97489.10;1782501;80;25652;-68
2023/11/05 10:34:57;;;;;;;9.90;6.60;;;;;;;8.36;91.01;97485.78;1782842;79;25629;-68
2023/11/05 10:37:24;;;;;;;10.15;6.50;;;;;;;8.34;91.26;97478.64;1782594;80;25380;-67
2023/11/05 10:39:50;;;;;;;10.63;6.55;;;;;;;8.32;91.82;97480.89;1782592;80;25605;-66
2023/11/05 12:25:04;;;;;;;15.48;6.90;;;;;;;8.54;96.75;97444.30;1868359;76;35141;-75
2023/11/05 12:27:33;;;;;;;11.97;6.55;;;;;;;8.48;96.89;97440.37;1757101;81;25527;-73
2023/11/05 12:30:07;;;;;;;12.37;6.83;;;;;;;8.49;96.81;97441.16;1771119;81;27477;-76
2023/11/05 12:32:37;;;;;;;11.40;6.78;;;;;;;8.46;96.91;97438.59;1756998;81;25465;-77
2023/11/05 12:35:06;;;;;;;8.30;6.28;;;;;;;8.45;96.90;97436.30;1770649;80;25732;-75
2023/11/05 12:37:32;;;;;;;9.93;6.95;;;;;;;8.44;97.37;97434.16;1726686;81;25659;-75
2023/11/05 12:39:58;;;;;;;12.73;6.58;;;;;;;8.44;97.23;97436.84;1776542;80;25760;-77
2023/11/05 12:42:27;;;;;;;12.03;7.28;;;;;;;8.45;97.33;97430.33;1776531;80;28017;-76
2023/11/05 12:44:54;;;;;;;13.05;6.53;;;;;;;8.47;97.40;97435.36;1756282;81;25638;-77
2023/11/05 12:47:22;;;;;;;9.68;6.55;;;;;;;8.46;97.62;97431.87;1770307;81;25705;-77
2023/11/05 12:49:48;;;;;;;14.00;6.62;;;;;;;8.45;97.64;97433.02;1727318;81;25684;-77
2023/11/05 12:52:15;;;;;;;10.68;7.10;;;;;;;8.42;97.65;97436.41;1777039;80;25597;-76
2023/11/05 12:54:41;;;;;;;9.63;6.80;;;;;;;8.41;97.77;97433.50;1777035;80;28084;-76
2023/11/05 12:57:09;;;;;;;12.50;7.10;;;;;;;8.41;98.01;97430.25;1756852;81;25550;-76
2023/11/05 12:59:39;;;;;;;12.43;7.45;;;;;;;8.39;98.17;97422.32;1742770;81;25590;-76
2023/11/05 13:02:08;;;;;;;12.68;7.22;;;;;;;8.40;98.67;97425.23;1756536;81;25376;-78
2023/11/05 13:04:36;;;;;;;10.80;7.17;;;;;;;8.38;98.56;97427.52;1743265;81;25403;-78
2023/11/05 13:07:07;;;;;;;12.50;7.30;;;;;;;8.38;98.53;97424.24;1757025;81;27506;-77
2023/11/05 13:09:35;;;;;;;10.03;6.55;;;;;;;8.41;98.67;97424.07;1777280;80;25643;-78
2023/11/05 13:12:04;;;;;;;13.08;8.45;;;;;;;8.39;99.07;97412.89;1757893;81;25419;-77
2023/11/05 13:14:30;;;;;;;14.35;7.47;;;;;;;8.39;99.10;97416.93;1778274;80;25408;-75
2023/11/05 13:16:57;;;;;;;12.43;8.25;;;;;;;8.39;99.41;97415.59;1777228;80;25388;-75
2023/11/05 13:19:26;;;;;;;10.03;7.22;;;;;;;8.39;99.61;97416.93;1777126;80;27191;-76
2023/11/05 13:21:52;;;;;;;9.50;6.85;;;;;;;8.37;99.57;97414.59;1756853;81;25444;-72
2023/11/05 13:24:18;;;;;;;12.25;7.60;;;;;;;8.37;100.00;97406.52;1772702;80;25469;-76
2023/11/05 13:26:45;;;;;;;11.63;8.45;;;;;;;8.35;100.00;97406.11;1762752;81;25491;-78
2023/11/05 13:29:12;;;;;;;13.03;8.73;;;;;;;8.36;100.00;97414.96;1774140;80;25416;-78
2023/11/05 13:31:38;;;;;;;13.78;9.53;;;;;;;8.37;100.00;97412.48;1762606;81;27453;-77
2023/11/05 13:34:04;;;;;;;11.73;8.58;;;;;;;8.39;100.00;97408.30;1793937;80;25202;-78
2023/11/05 13:36:31;;;;;;;12.20;8.65;;;;;;;8.41;100.00;97415.98;1732614;81;25448;-78
2023/11/05 13:39:01;;;;;;;11.33;8.95;;;;;;;8.41;100.00;97415.98;1747707;80;25599;-78
2023/11/05 13:41:28;;;;;;;14.20;8.98;;;;;;;8.41;100.00;97410.60;1762592;81;25536;-77
2023/11/05 13:43:54;;;;;;;10.88;8.85;;;;;;;8.41;100.00;97422.17;1793541;80;27470;-78
2023/11/05 13:46:20;;;;;;;14.53;9.45;;;;;;;8.41;100.00;97423.52;1762287;81;25483;-77
2023/11/05 13:48:47;;;;;;;11.10;8.85;;;;;;;8.41;100.00;97431.60;1793413;80;25418;-77
2023/11/05 13:51:13;;;;;;;11.55;9.08;;;;;;;8.41;100.00;97432.16;1762721;81;25441;-79
2023/11/05 13:53:39;;;;;;;15.28;10.38;;;;;;;8.41;100.00;97438.34;1794462;80;25499;-79
2023/11/05 13:56:06;;;;;;;16.73;10.10;;;;;;;8.41;100.00;97434.84;1764319;81;27533;-81